sensor_id;sensor_type;location;lat;lon;timestamp;pressure;altitude;pressure_sealevel;temperature;humidity
16331;BME280;8275;48.206;16.340;2022-09-06T00:01:12;99618.72;;;24.44;40.73
16331;BME280;8275;48.206;16.340;2022-09-06T00:03:41;99617.88;;;24.43;40.76
16331;BME280;8275;48.206;16.340;2022-09-06T00:06:16;99617.75;;;24.40;40.97
16331;BME280;8275;48.206;16.340;2022-09-06T00:08:47;99604.09;;;24.38;40.85
16331;BME280;8275;48.206;16.340;2022-09-06T00:11:17;99606.09;;;24.38;41.00
16331;BME280;8275;48.206;16.340;2022-09-06T00:13:46;99601.97;;;24.35;41.08
16331;BME280;8275;48.206;16.340;2022-09-06T00:16:20;99598.69;;;24.33;41.12
16331;BME280;8275;48.206;16.340;2022-09-06T00:18:55;99593.41;;;24.32;41.09
16331;BME280;8275;48.206;16.340;2022-09-06T00:21:26;99596.88;;;24.29;41.23
16331;BME280;8275;48.206;16.340;2022-09-06T00:23:56;99599.22;;;24.27;41.16
16331;BME280;8275;48.206;16.340;2022-09-06T00:26:24;99593.63;;;24.27;41.30
16331;BME280;8275;48.206;16.340;2022-09-06T00:28:53;99598.72;;;24.25;41.54
16331;BME280;8275;48.206;16.340;2022-09-06T00:31:25;99594.63;;;24.22;41.56
16331;BME280;8275;48.206;16.340;2022-09-06T00:33:53;99597.78;;;24.21;41.46
16331;BME280;8275;48.206;16.340;2022-09-06T00:36:22;99598.13;;;24.19;41.53
16331;BME280;8275;48.206;16.340;2022-09-06T00:38:50;99605.22;;;24.17;41.56
16331;BME280;8275;48.206;16.340;2022-09-06T00:41:19;99603.91;;;24.14;41.72
16331;BME280;8275;48.206;16.340;2022-09-06T00:43:47;99608.19;;;24.12;41.69
16331;BME280;8275;48.206;16.340;2022-09-06T00:46:20;99600.00;;;24.07;41.60
16331;BME280;8275;48.206;16.340;2022-09-06T00:48:55;99598.38;;;24.06;41.74
16331;BME280;8275;48.206;16.340;2022-09-06T00:51:28;99591.75;;;24.02;41.91
16331;BME280;8275;48.206;16.340;2022-09-06T00:53:58;99593.75;;;24.01;41.92
16331;BME280;8275;48.206;16.340;2022-09-06T00:56:29;99600.84;;;23.99;42.02
16331;BME280;8275;48.206;16.340;2022-09-06T00:59:00;99591.13;;;23.96;42.15
16331;BME280;8275;48.206;16.340;2022-09-06T01:01:29;99601.84;;;23.94;42.19
16331;BME280;8275;48.206;16.340;2022-09-06T01:03:59;99592.16;;;23.92;42.15
16331;BME280;8275;48.206;16.340;2022-09-06T01:06:42;99594.78;;;23.88;42.26
16331;BME280;8275;48.206;16.340;2022-09-06T01:09:24;99600.25;;;23.85;42.09
16331;BME280;8275;48.206;16.340;2022-09-06T01:12:07;99595.31;;;23.82;42.45
16331;BME280;8275;48.206;16.340;2022-09-06T01:15:00;99594.34;;;23.78;42.23
16331;BME280;8275;48.206;16.340;2022-09-06T01:17:46;99579.06;;;23.75;42.47
16331;BME280;8275;48.206;16.340;2022-09-06T01:20:40;99590.41;;;23.70;42.60
16331;BME280;8275;48.206;16.340;2022-09-06T01:27:45;99591.47;;;23.57;42.55
16331;BME280;8275;48.206;16.340;2022-09-06T01:30:23;99589.50;;;23.57;42.67
16331;BME280;8275;48.206;16.340;2022-09-06T01:32:59;99594.56;;;23.55;42.82
16331;BME280;8275;48.206;16.340;2022-09-06T01:35:34;99600.16;;;23.55;43.05
16331;BME280;8275;48.206;16.340;2022-09-06T01:38:06;99603.78;;;23.56;43.09
16331;BME280;8275;48.206;16.340;2022-09-06T01:40:35;99600.50;;;23.54;43.14
16331;BME280;8275;48.206;16.340;2022-09-06T01:43:09;99592.78;;;23.51;43.31
16331;BME280;8275;48.206;16.340;2022-09-06T01:45:48;99590.31;;;23.49;43.17
16331;BME280;8275;48.206;16.340;2022-09-06T01:48:33;99594.59;;;23.47;43.34
16331;BME280;8275;48.206;16.340;2022-09-06T01:51:13;99592.16;;;23.45;43.25
16331;BME280;8275;48.206;16.340;2022-09-06T01:54:13;99591.97;;;23.42;43.27
16331;BME280;8275;48.206;16.340;2022-09-06T01:56:52;99578.34;;;23.40;43.42
16331;BME280;8275;48.206;16.340;2022-09-06T01:59:45;99589.41;;;23.37;43.29
16331;BME280;8275;48.206;16.340;2022-09-06T02:02:24;99582.16;;;23.36;43.69
16331;BME280;8275;48.206;16.340;2022-09-06T02:05:00;99577.19;;;23.33;43.59
16331;BME280;8275;48.206;16.340;2022-09-06T02:07:32;99577.53;;;23.31;43.83
16331;BME280;8275;48.206;16.340;2022-09-06T02:10:07;99584.13;;;23.27;43.76
16331;BME280;8275;48.206;16.340;2022-09-06T02:12:40;99577.22;;;23.24;43.84
16331;BME280;8275;48.206;16.340;2022-09-06T02:15:17;99583.16;;;23.23;44.05
16331;BME280;8275;48.206;16.340;2022-09-06T02:17:52;99579.03;;;23.20;44.17
16331;BME280;8275;48.206;16.340;2022-09-06T02:20:27;99567.38;;;23.18;44.30
16331;BME280;8275;48.206;16.340;2022-09-06T02:23:00;99564.88;;;23.17;44.14
16331;BME280;8275;48.206;16.340;2022-09-06T02:25:36;99567.53;;;23.13;44.06
16331;BME280;8275;48.206;16.340;2022-09-06T02:28:07;99560.63;;;23.11;43.88
16331;BME280;8275;48.206;16.340;2022-09-06T02:30:42;99562.94;;;23.09;44.21
16331;BME280;8275;48.206;16.340;2022-09-06T02:33:18;99562.47;;;23.07;44.26
16331;BME280;8275;48.206;16.340;2022-09-06T02:35:51;99570.34;;;23.04;44.54
16331;BME280;8275;48.206;16.340;2022-09-06T02:38:23;99567.88;;;23.03;44.42
16331;BME280;8275;48.206;16.340;2022-09-06T02:40:53;99566.56;;;23.00;44.39
16331;BME280;8275;48.206;16.340;2022-09-06T02:43:22;99571.66;;;22.98;44.33
16331;BME280;8275;48.206;16.340;2022-09-06T02:45:52;99576.75;;;22.96;44.59
16331;BME280;8275;48.206;16.340;2022-09-06T02:48:21;99581.88;;;22.94;44.57
16331;BME280;8275;48.206;16.340;2022-09-06T02:50:50;99586.97;;;22.92;44.63
16331;BME280;8275;48.206;16.340;2022-09-06T02:53:18;99570.03;;;22.89;44.66
16331;BME280;8275;48.206;16.340;2022-09-06T02:55:46;99571.50;;;22.86;44.58
16331;BME280;8275;48.206;16.340;2022-09-06T02:58:15;99564.28;;;22.85;44.63
16331;BME280;8275;48.206;16.340;2022-09-06T03:00:44;99560.19;;;22.83;44.54
16331;BME280;8275;48.206;16.340;2022-09-06T03:03:14;99570.53;;;22.82;44.51
16331;BME280;8275;48.206;16.340;2022-09-06T03:05:46;99572.00;;;22.80;44.71
16331;BME280;8275;48.206;16.340;2022-09-06T03:08:14;99562.78;;;22.79;44.81
16331;BME280;8275;48.206;16.340;2022-09-06T03:10:47;99566.28;;;22.76;44.77
16331;BME280;8275;48.206;16.340;2022-09-06T03:13:16;99564.31;;;22.77;44.95
16331;BME280;8275;48.206;16.340;2022-09-06T03:15:49;99564.94;;;22.74;44.86
16331;BME280;8275;48.206;16.340;2022-09-06T03:18:20;99567.75;;;22.74;45.06
16331;BME280;8275;48.206;16.340;2022-09-06T03:20:48;99562.16;;;22.74;44.96
16331;BME280;8275;48.206;16.340;2022-09-06T03:23:17;99557.72;;;22.73;45.22
16331;BME280;8275;48.206;16.340;2022-09-06T03:25:46;99560.84;;;22.71;44.96
16331;BME280;8275;48.206;16.340;2022-09-06T03:28:15;99563.63;;;22.71;45.19
16331;BME280;8275;48.206;16.340;2022-09-06T03:30:45;99563.97;;;22.70;45.21
16331;BME280;8275;48.206;16.340;2022-09-06T03:33:14;99553.13;;;22.68;45.22
16331;BME280;8275;48.206;16.340;2022-09-06T03:35:49;99551.78;;;22.66;45.06
16331;BME280;8275;48.206;16.340;2022-09-06T03:38:18;99543.09;;;22.67;44.92
16331;BME280;8275;48.206;16.340;2022-09-06T03:40:47;99543.41;;;22.66;45.48
16331;BME280;8275;48.206;16.340;2022-09-06T03:43:16;99553.44;;;22.67;45.21
16331;BME280;8275;48.206;16.340;2022-09-06T03:45:46;99553.78;;;22.65;45.37
16331;BME280;8275;48.206;16.340;2022-09-06T03:48:18;99544.59;;;22.65;45.33
16331;BME280;8275;48.206;16.340;2022-09-06T03:50:51;99549.69;;;22.63;45.43
16331;BME280;8275;48.206;16.340;2022-09-06T03:53:21;99544.09;;;22.63;45.27
16331;BME280;8275;48.206;16.340;2022-09-06T03:55:52;99551.16;;;22.60;45.17
16331;BME280;8275;48.206;16.340;2022-09-06T03:58:23;99553.09;;;22.60;45.35
16331;BME280;8275;48.206;16.340;2022-09-06T04:01:00;99557.34;;;22.57;45.69
16331;BME280;8275;48.206;16.340;2022-09-06T04:03:30;99558.53;;;22.56;45.74
16331;BME280;8275;48.206;16.340;2022-09-06T04:06:01;99555.22;;;22.54;45.21
16331;BME280;8275;48.206;16.340;2022-09-06T04:08:30;99551.63;;;22.54;45.40
16331;BME280;8275;48.206;16.340;2022-09-06T04:10:59;99553.09;;;22.51;45.46
16331;BME280;8275;48.206;16.340;2022-09-06T04:13:29;99553.09;;;22.51;45.68
16331;BME280;8275;48.206;16.340;2022-09-06T04:15:57;99558.19;;;22.49;45.89
16331;BME280;8275;48.206;16.340;2022-09-06T04:18:26;99556.53;;;22.48;45.50
16331;BME280;8275;48.206;16.340;2022-09-06T04:20:56;99564.09;;;22.48;45.84
16331;BME280;8275;48.206;16.340;2022-09-06T04:23:27;99554.09;;;22.47;45.93
16331;BME280;8275;48.206;16.340;2022-09-06T04:25:57;99552.91;;;22.48;45.93
16331;BME280;8275;48.206;16.340;2022-09-06T04:28:26;99552.09;;;22.47;45.62
16331;BME280;8275;48.206;16.340;2022-09-06T04:30:58;99553.25;;;22.46;46.06
16331;BME280;8275;48.206;16.340;2022-09-06T04:33:32;99559.31;;;22.48;46.08
16331;BME280;8275;48.206;16.340;2022-09-06T04:36:02;99556.53;;;22.48;45.86
16331;BME280;8275;48.206;16.340;2022-09-06T04:38:37;99552.09;;;22.47;46.11
16331;BME280;8275;48.206;16.340;2022-09-06T04:41:07;99560.16;;;22.49;46.08
16331;BME280;8275;48.206;16.340;2022-09-06T04:43:36;99555.41;;;22.49;45.85
16331;BME280;8275;48.206;16.340;2022-09-06T04:46:08;99561.78;;;22.50;45.98
16331;BME280;8275;48.206;16.340;2022-09-06T04:48:38;99562.28;;;22.52;45.80
16331;BME280;8275;48.206;16.340;2022-09-06T04:51:06;99563.94;;;22.53;46.11
16331;BME280;8275;48.206;16.340;2022-09-06T04:53:36;99566.38;;;22.54;46.13
16331;BME280;8275;48.206;16.340;2022-09-06T04:56:05;99569.16;;;22.54;45.96
16331;BME280;8275;48.206;16.340;2022-09-06T04:58:33;99575.28;;;22.56;45.83
16331;BME280;8275;48.206;16.340;2022-09-06T05:01:02;99566.22;;;22.59;45.94
16331;BME280;8275;48.206;16.340;2022-09-06T05:03:30;99573.16;;;22.62;45.95
16331;BME280;8275;48.206;16.340;2022-09-06T05:06:07;99570.38;;;22.62;46.07
16331;BME280;8275;48.206;16.340;2022-09-06T05:08:38;99576.44;;;22.64;46.23
16331;BME280;8275;48.206;16.340;2022-09-06T05:11:08;99571.03;;;22.67;46.04
16331;BME280;8275;48.206;16.340;2022-09-06T05:13:37;99575.94;;;22.70;46.03
16331;BME280;8275;48.206;16.340;2022-09-06T05:16:08;99574.47;;;22.73;45.94
16331;BME280;8275;48.206;16.340;2022-09-06T05:18:37;99582.69;;;22.78;45.96
16331;BME280;8275;48.206;16.340;2022-09-06T05:21:05;99582.03;;;22.81;45.96
16331;BME280;8275;48.206;16.340;2022-09-06T05:23:34;99572.97;;;22.84;46.03
16331;BME280;8275;48.206;16.340;2022-09-06T05:26:04;99584.66;;;22.86;45.62
16331;BME280;8275;48.206;16.340;2022-09-06T05:28:32;99586.47;;;22.90;45.86
16331;BME280;8275;48.206;16.340;2022-09-06T05:31:08;99581.38;;;22.92;45.92
16331;BME280;8275;48.206;16.340;2022-09-06T05:33:37;99588.09;;;23.00;45.89
16331;BME280;8275;48.206;16.340;2022-09-06T05:36:06;99589.91;;;23.04;45.74
16331;BME280;8275;48.206;16.340;2022-09-06T05:38:35;99586.63;;;23.11;45.63
16331;BME280;8275;48.206;16.340;2022-09-06T05:41:05;99587.59;;;23.15;45.81
16331;BME280;8275;48.206;16.340;2022-09-06T05:43:33;99585.09;;;23.22;45.77
16331;BME280;8275;48.206;16.340;2022-09-06T05:46:02;99586.56;;;23.28;45.48
16331;BME280;8275;48.206;16.340;2022-09-06T05:48:31;99586.91;;;23.35;45.53
16331;BME280;8275;48.206;16.340;2022-09-06T05:51:05;99580.81;;;23.42;45.27
16331;BME280;8275;48.206;16.340;2022-09-06T05:53:36;99583.59;;;23.50;45.19
16331;BME280;8275;48.206;16.340;2022-09-06T05:56:06;99593.91;;;23.58;45.31
16331;BME280;8275;48.206;16.340;2022-09-06T05:58:35;99588.09;;;23.72;44.83
16331;BME280;8275;48.206;16.340;2022-09-06T06:01:06;99573.88;;;23.86;44.77
16331;BME280;8275;48.206;16.340;2022-09-06T06:03:35;99587.81;;;24.03;44.55
16331;BME280;8275;48.206;16.340;2022-09-06T06:06:05;99584.44;;;24.18;44.43
16331;BME280;8275;48.206;16.340;2022-09-06T06:08:34;99585.69;;;24.29;44.29
16331;BME280;8275;48.206;16.340;2022-09-06T06:11:04;99584.94;;;24.40;44.15
16331;BME280;8275;48.206;16.340;2022-09-06T06:13:33;99576.78;;;24.56;44.11
16331;BME280;8275;48.206;16.340;2022-09-06T06:16:06;99576.84;;;24.68;43.91
16331;BME280;8275;48.206;16.340;2022-09-06T06:18:35;99571.22;;;24.77;43.72
16331;BME280;8275;48.206;16.340;2022-09-06T06:21:09;99570.19;;;24.81;43.65
16331;BME280;8275;48.206;16.340;2022-09-06T06:23:38;99586.56;;;24.91;43.39
16331;BME280;8275;48.206;16.340;2022-09-06T06:26:09;99586.50;;;25.00;43.44
16331;BME280;8275;48.206;16.340;2022-09-06T06:28:38;99588.41;;;25.08;43.28
16331;BME280;8275;48.206;16.340;2022-09-06T06:31:09;99577.78;;;25.14;43.24
16331;BME280;8275;48.206;16.340;2022-09-06T06:33:39;99583.66;;;25.21;43.17
16331;BME280;8275;48.206;16.340;2022-09-06T06:36:19;99580.63;;;25.26;42.92
16331;BME280;8275;48.206;16.340;2022-09-06T06:38:50;99578.22;;;25.36;42.77
16331;BME280;8275;48.206;16.340;2022-09-06T06:41:24;99578.13;;;25.45;42.86
16331;BME280;8275;48.206;16.340;2022-09-06T06:43:52;99570.91;;;25.56;42.65
16331;BME280;8275;48.206;16.340;2022-09-06T06:46:24;99578.88;;;25.66;42.54
16331;BME280;8275;48.206;16.340;2022-09-06T06:48:53;99568.00;;;25.76;42.14
16331;BME280;8275;48.206;16.340;2022-09-06T06:51:24;99574.69;;;25.84;42.28
16331;BME280;8275;48.206;16.340;2022-09-06T06:53:52;99574.84;;;25.88;42.14
16331;BME280;8275;48.206;16.340;2022-09-06T06:56:26;99578.56;;;25.92;42.11
16331;BME280;8275;48.206;16.340;2022-09-06T06:58:57;99572.00;;;26.00;41.88
16331;BME280;8275;48.206;16.340;2022-09-06T07:01:28;99569.09;;;26.08;41.85
16331;BME280;8275;48.206;16.340;2022-09-06T07:03:58;99577.44;;;26.17;41.24
16331;BME280;8275;48.206;16.340;2022-09-06T07:06:27;99577.66;;;26.24;41.57
16331;BME280;8275;48.206;16.340;2022-09-06T07:09:17;99576.38;;;26.33;41.20
16331;BME280;8275;48.206;16.340;2022-09-06T07:11:48;99576.47;;;26.37;41.40
16331;BME280;8275;48.206;16.340;2022-09-06T07:14:17;99575.84;;;26.43;41.15
16331;BME280;8275;48.206;16.340;2022-09-06T07:16:46;99577.00;;;26.55;40.93
16331;BME280;8275;48.206;16.340;2022-09-06T07:19:15;99572.56;;;26.66;40.71
16331;BME280;8275;48.206;16.340;2022-09-06T07:22:04;99578.16;;;26.78;40.57
16331;BME280;8275;48.206;16.340;2022-09-06T07:24:36;99584.34;;;26.83;40.58
16331;BME280;8275;48.206;16.340;2022-09-06T07:27:07;99572.50;;;26.90;40.92
16331;BME280;8275;48.206;16.340;2022-09-06T07:29:55;99572.81;;;27.00;40.65
16331;BME280;8275;48.206;16.340;2022-09-06T07:32:24;99583.53;;;27.10;40.12
16331;BME280;8275;48.206;16.340;2022-09-06T07:34:55;99587.38;;;27.18;40.27
16331;BME280;8275;48.206;16.340;2022-09-06T07:37:24;99592.50;;;27.28;39.61
16331;BME280;8275;48.206;16.340;2022-09-06T07:39:52;99585.06;;;27.36;39.53
16331;BME280;8275;48.206;16.340;2022-09-06T07:42:22;99591.03;;;27.46;39.94
16331;BME280;8275;48.206;16.340;2022-09-06T07:44:51;99592.94;;;27.58;39.14
16331;BME280;8275;48.206;16.340;2022-09-06T07:47:20;99586.31;;;27.66;39.51
16331;BME280;8275;48.206;16.340;2022-09-06T07:50:08;99594.50;;;27.71;39.08
16331;BME280;8275;48.206;16.340;2022-09-06T07:53:03;99593.03;;;27.77;39.06
16331;BME280;8275;48.206;16.340;2022-09-06T07:55:37;99584.06;;;27.87;39.02
16331;BME280;8275;48.206;16.340;2022-09-06T07:58:07;99581.88;;;27.96;38.59
16331;BME280;8275;48.206;16.340;2022-09-06T08:00:36;99580.09;;;28.04;38.33
16331;BME280;8275;48.206;16.340;2022-09-06T08:03:07;99582.72;;;28.12;38.33
16331;BME280;8275;48.206;16.340;2022-09-06T08:05:37;99573.59;;;28.19;38.16
16331;BME280;8275;48.206;16.340;2022-09-06T08:08:25;99573.13;;;28.32;38.36
16331;BME280;8275;48.206;16.340;2022-09-06T08:11:14;99575.38;;;28.42;38.45
16331;BME280;8275;48.206;16.340;2022-09-06T08:13:48;99581.53;;;28.48;38.40
16331;BME280;8275;48.206;16.340;2022-09-06T08:16:17;99583.63;;;28.51;38.27
16331;BME280;8275;48.206;16.340;2022-09-06T08:18:50;99577.91;;;28.47;38.25
16331;BME280;8275;48.206;16.340;2022-09-06T08:21:20;99580.00;;;28.50;38.39
16331;BME280;8275;48.206;16.340;2022-09-06T08:23:52;99579.00;;;28.59;37.77
16331;BME280;8275;48.206;16.340;2022-09-06T08:26:22;99571.97;;;28.68;38.18
16331;BME280;8275;48.206;16.340;2022-09-06T08:28:54;99572.59;;;28.77;37.65
16331;BME280;8275;48.206;16.340;2022-09-06T08:31:24;99571.25;;;28.90;37.58
16331;BME280;8275;48.206;16.340;2022-09-06T08:33:54;99566.47;;;28.94;37.44
16331;BME280;8275;48.206;16.340;2022-09-06T08:36:23;99560.19;;;29.01;37.24
16331;BME280;8275;48.206;16.340;2022-09-06T08:38:55;99566.03;;;29.11;37.29
16331;BME280;8275;48.206;16.340;2022-09-06T08:41:26;99563.41;;;29.18;36.76
16331;BME280;8275;48.206;16.340;2022-09-06T08:44:02;99570.75;;;29.23;36.83
16331;BME280;8275;48.206;16.340;2022-09-06T08:46:55;99565.25;;;29.30;36.95
16331;BME280;8275;48.206;16.340;2022-09-06T08:49:29;99562.91;;;29.36;36.59
16331;BME280;8275;48.206;16.340;2022-09-06T08:52:27;99565.81;;;29.39;36.58
16331;BME280;8275;48.206;16.340;2022-09-06T08:55:11;99559.94;;;29.48;36.65
16331;BME280;8275;48.206;16.340;2022-09-06T08:57:59;99553.53;;;29.51;36.40
16331;BME280;8275;48.206;16.340;2022-09-06T09:00:32;99557.75;;;29.60;36.40
16331;BME280;8275;48.206;16.340;2022-09-06T09:03:07;99553.72;;;29.61;36.42
16331;BME280;8275;48.206;16.340;2022-09-06T09:05:43;99558.63;;;29.64;36.40
16331;BME280;8275;48.206;16.340;2022-09-06T09:08:21;99548.50;;;29.63;36.43
16331;BME280;8275;48.206;16.340;2022-09-06T09:10:57;99548.19;;;29.68;36.17
16331;BME280;8275;48.206;16.340;2022-09-06T09:13:32;99546.34;;;29.76;36.27
16331;BME280;8275;48.206;16.340;2022-09-06T09:16:04;99546.09;;;29.84;36.08
16331;BME280;8275;48.206;16.340;2022-09-06T09:18:37;99544.22;;;29.92;35.86
16331;BME280;8275;48.206;16.340;2022-09-06T09:21:06;99537.09;;;30.02;35.54
16331;BME280;8275;48.206;16.340;2022-09-06T09:23:36;99539.63;;;30.07;35.49
16331;BME280;8275;48.206;16.340;2022-09-06T09:26:09;99535.25;;;30.13;35.53
16331;BME280;8275;48.206;16.340;2022-09-06T09:28:38;99531.72;;;30.19;35.43
16331;BME280;8275;48.206;16.340;2022-09-06T09:31:07;99531.00;;;30.26;35.73
16331;BME280;8275;48.206;16.340;2022-09-06T09:33:36;99524.22;;;30.30;35.45
16331;BME280;8275;48.206;16.340;2022-09-06T09:36:08;99522.66;;;30.33;35.31
16331;BME280;8275;48.206;16.340;2022-09-06T09:38:42;99521.03;;;30.32;35.36
16331;BME280;8275;48.206;16.340;2022-09-06T09:41:26;99522.22;;;30.31;35.29
16331;BME280;8275;48.206;16.340;2022-09-06T09:43:57;99510.66;;;30.39;35.13
16331;BME280;8275;48.206;16.340;2022-09-06T09:46:34;99510.72;;;30.43;34.79
16331;BME280;8275;48.206;16.340;2022-09-06T09:49:06;99512.78;;;30.46;34.80
16331;BME280;8275;48.206;16.340;2022-09-06T09:51:37;99511.63;;;30.50;34.69
16331;BME280;8275;48.206;16.340;2022-09-06T09:54:08;99497.53;;;30.54;34.77
16331;BME280;8275;48.206;16.340;2022-09-06T09:56:45;99502.84;;;30.59;34.65
16331;BME280;8275;48.206;16.340;2022-09-06T09:59:20;99498.47;;;30.65;34.61
16331;BME280;8275;48.206;16.340;2022-09-06T10:01:53;99497.31;;;30.70;34.55
16331;BME280;8275;48.206;16.340;2022-09-06T10:04:30;99494.91;;;30.72;34.23
16331;BME280;8275;48.206;16.340;2022-09-06T10:07:17;99489.63;;;30.67;34.14
16331;BME280;8275;48.206;16.340;2022-09-06T10:09:48;99489.16;;;30.65;34.19
16331;BME280;8275;48.206;16.340;2022-09-06T10:12:27;99493.53;;;30.59;34.35
16331;BME280;8275;48.206;16.340;2022-09-06T10:14:56;99485.50;;;30.61;34.28
16331;BME280;8275;48.206;16.340;2022-09-06T10:17:33;99486.72;;;30.60;33.97
16331;BME280;8275;48.206;16.340;2022-09-06T10:20:05;99482.63;;;30.57;34.11
16331;BME280;8275;48.206;16.340;2022-09-06T10:22:48;99487.47;;;30.57;34.07
16331;BME280;8275;48.206;16.340;2022-09-06T10:25:37;99485.78;;;30.52;34.32
16331;BME280;8275;48.206;16.340;2022-09-06T10:28:30;99479.72;;;30.50;34.24
16331;BME280;8275;48.206;16.340;2022-09-06T10:31:31;99483.78;;;30.52;34.41
16331;BME280;8275;48.206;16.340;2022-09-06T10:37:12;99493.25;;;30.67;34.21
16331;BME280;8275;48.206;16.340;2022-09-06T10:39:48;99487.13;;;30.91;33.72
16331;BME280;8275;48.206;16.340;2022-09-06T10:42:31;99480.13;;;31.18;33.87
16331;BME280;8275;48.206;16.340;2022-09-06T10:45:26;99480.47;;;31.47;33.75
16331;BME280;8275;48.206;16.340;2022-09-06T10:47:58;99480.78;;;31.85;33.54
16331;BME280;8275;48.206;16.340;2022-09-06T10:50:40;99478.28;;;32.28;32.71
16331;BME280;8275;48.206;16.340;2022-09-06T10:53:17;99476.53;;;32.78;32.49
16331;BME280;8275;48.206;16.340;2022-09-06T10:55:56;99469.78;;;33.28;31.65
16331;BME280;8275;48.206;16.340;2022-09-06T10:58:35;99469.03;;;33.63;30.17
16331;BME280;8275;48.206;16.340;2022-09-06T11:01:32;99464.97;;;33.96;30.19
16331;BME280;8275;48.206;16.340;2022-09-06T11:04:08;99463.28;;;34.33;29.98
16331;BME280;8275;48.206;16.340;2022-09-06T11:06:43;99464.00;;;34.76;29.48
16331;BME280;8275;48.206;16.340;2022-09-06T11:09:19;99458.06;;;35.22;29.28
16331;BME280;8275;48.206;16.340;2022-09-06T11:11:57;99447.94;;;35.69;28.93
16331;BME280;8275;48.206;16.340;2022-09-06T11:14:29;99452.50;;;36.07;28.63
16331;BME280;8275;48.206;16.340;2022-09-06T11:17:01;99441.56;;;36.39;28.06
16331;BME280;8275;48.206;16.340;2022-09-06T11:19:40;99437.06;;;36.76;27.76
16331;BME280;8275;48.206;16.340;2022-09-06T11:25:50;99443.78;;;37.72;27.31
16331;BME280;8275;48.206;16.340;2022-09-06T11:28:28;99443.66;;;38.26;26.46
16331;BME280;8275;48.206;16.340;2022-09-06T11:30:59;99437.25;;;38.61;25.82
16331;BME280;8275;48.206;16.340;2022-09-06T11:33:30;99438.88;;;38.82;24.84
16331;BME280;8275;48.206;16.340;2022-09-06T11:36:26;99429.06;;;38.99;24.82
16331;BME280;8275;48.206;16.340;2022-09-06T11:39:01;99438.91;;;39.17;24.96
16331;BME280;8275;48.206;16.340;2022-09-06T11:41:33;99435.34;;;39.29;24.51
16331;BME280;8275;48.206;16.340;2022-09-06T11:44:03;99429.75;;;39.58;23.64
16331;BME280;8275;48.206;16.340;2022-09-06T11:47:00;99431.97;;;39.99;24.20
16331;BME280;8275;48.206;16.340;2022-09-06T11:49:36;99436.28;;;40.52;23.34
16331;BME280;8275;48.206;16.340;2022-09-06T11:52:59;99426.72;;;40.96;23.16
16331;BME280;8275;48.206;16.340;2022-09-06T11:55:43;99426.78;;;41.34;21.96
16331;BME280;8275;48.206;16.340;2022-09-06T11:58:29;99428.84;;;41.59;21.98
16331;BME280;8275;48.206;16.340;2022-09-06T12:01:35;99434.25;;;41.57;21.98
16331;BME280;8275;48.206;16.340;2022-09-06T12:04:08;99435.41;;;41.59;21.43
16331;BME280;8275;48.206;16.340;2022-09-06T12:06:41;99429.66;;;41.72;21.03
16331;BME280;8275;48.206;16.340;2022-09-06T12:09:30;99428.00;;;41.96;21.37
16331;BME280;8275;48.206;16.340;2022-09-06T12:12:02;99430.44;;;41.85;21.07
16331;BME280;8275;48.206;16.340;2022-09-06T12:14:37;99429.78;;;41.43;20.96
16331;BME280;8275;48.206;16.340;2022-09-06T12:17:24;99424.88;;;40.90;20.88
16331;BME280;8275;48.206;16.340;2022-09-06T12:19:59;99431.72;;;40.67;21.19
16331;BME280;8275;48.206;16.340;2022-09-06T12:22:53;99422.06;;;40.74;21.22
16331;BME280;8275;48.206;16.340;2022-09-06T12:25:56;99413.34;;;40.77;21.64
16331;BME280;8275;48.206;16.340;2022-09-06T12:28:41;99411.53;;;40.83;21.31
16331;BME280;8275;48.206;16.340;2022-09-06T12:31:32;99410.28;;;40.84;21.15
16331;BME280;8275;48.206;16.340;2022-09-06T12:34:12;99411.91;;;40.85;20.67
16331;BME280;8275;48.206;16.340;2022-09-06T12:36:59;99410.38;;;40.81;20.61
16331;BME280;8275;48.206;16.340;2022-09-06T12:39:28;99401.75;;;40.81;20.74
16331;BME280;8275;48.206;16.340;2022-09-06T12:42:00;99396.56;;;40.76;20.61
16331;BME280;8275;48.206;16.340;2022-09-06T12:44:34;99409.69;;;40.77;20.49
16331;BME280;8275;48.206;16.340;2022-09-06T12:47:12;99402.72;;;40.90;20.57
16331;BME280;8275;48.206;16.340;2022-09-06T12:49:42;99398.00;;;41.09;20.57
16331;BME280;8275;48.206;16.340;2022-09-06T12:52:14;99396.78;;;41.35;20.24
16331;BME280;8275;48.206;16.340;2022-09-06T12:54:46;99387.28;;;41.72;20.11
16331;BME280;8275;48.206;16.340;2022-09-06T12:57:20;99382.78;;;42.18;19.65
16331;BME280;8275;48.206;16.340;2022-09-06T12:59:53;99382.34;;;42.63;18.94
16331;BME280;8275;48.206;16.340;2022-09-06T13:02:29;99375.75;;;42.84;18.63
16331;BME280;8275;48.206;16.340;2022-09-06T13:05:03;99376.31;;;42.92;18.74
16331;BME280;8275;48.206;16.340;2022-09-06T13:07:36;99369.13;;;42.96;18.78
16331;BME280;8275;48.206;16.340;2022-09-06T13:10:07;99373.84;;;43.12;18.56
16331;BME280;8275;48.206;16.340;2022-09-06T13:12:40;99369.44;;;43.29;18.38
16331;BME280;8275;48.206;16.340;2022-09-06T13:15:18;99370.91;;;43.43;18.39
16331;BME280;8275;48.206;16.340;2022-09-06T13:17:47;99366.31;;;43.63;17.77
16331;BME280;8275;48.206;16.340;2022-09-06T13:20:25;99376.31;;;43.71;17.40
16331;BME280;8275;48.206;16.340;2022-09-06T13:23:07;99368.97;;;43.31;17.99
16331;BME280;8275;48.206;16.340;2022-09-06T13:25:46;99360.66;;;42.71;18.22
16331;BME280;8275;48.206;16.340;2022-09-06T13:28:27;99359.16;;;42.23;18.05
16331;BME280;8275;48.206;16.340;2022-09-06T13:31:07;99366.72;;;42.30;18.29
16331;BME280;8275;48.206;16.340;2022-09-06T13:33:37;99356.84;;;42.52;18.04
16331;BME280;8275;48.206;16.340;2022-09-06T13:36:20;99364.84;;;42.36;18.23
16331;BME280;8275;48.206;16.340;2022-09-06T13:38:49;99356.03;;;41.96;18.36
16331;BME280;8275;48.206;16.340;2022-09-06T13:41:38;99365.38;;;41.28;18.44
16331;BME280;8275;48.206;16.340;2022-09-06T13:44:19;99366.25;;;40.87;18.73
16331;BME280;8275;48.206;16.340;2022-09-06T13:46:55;99349.38;;;40.89;18.84
16331;BME280;8275;48.206;16.340;2022-09-06T13:49:24;99349.72;;;41.16;19.00